Time;durP1;ratioP1;P1;durP2;ratioP2;P2;SDS_P1;SDS_P2;PMS_P1;PMS_P2;Temp;Humidity;BMP_temperature;BMP_pressure;BME280_temperature;BME280_humidity;BME280_pressure;Samples;Min_cycle;Max_cycle;Signal;HPM_P1;HPM_P2
2023/01/04 00:01:31;;;;;;;0.85;0.85;;;;;;;;;;5049839;28;20129;-61
2023/01/04 00:03:59;;;;;;;1.40;0.95;;;;;;;;;;5048631;28;20405;-60
2023/01/04 00:06:29;;;;;;;3.45;1.17;;;;;;;;;;5048341;28;20060;-61
2023/01/04 00:08:57;;;;;;;1.58;1.20;;;;;;;;;;5048908;28;20049;-61
2023/01/04 00:11:26;;;;;;;2.35;0.85;;;;;;;;;;5048748;28;20106;-61
2023/01/04 00:13:56;;;;;;;0.95;0.88;;;;;;;;;;5054334;28;20048;-61
2023/01/04 00:16:25;;;;;;;2.88;1.52;;;;;;;;;;5051466;28;20497;-61
2023/01/04 00:18:54;;;;;;;1.55;1.02;;;;;;;;;;5050118;28;20065;-61
2023/01/04 00:21:23;;;;;;;4.60;2.13;;;;;;;;;;5057953;28;21326;-60
2023/01/04 00:23:54;;;;;;;4.32;2.45;;;;;;;;;;5052544;28;20466;-61
2023/01/04 00:26:23;;;;;;;9.13;2.97;;;;;;;;;;5049645;28;20052;-60
2023/01/04 00:28:55;;;;;;;7.10;2.70;;;;;;;;;;5045461;28;20119;-60
2023/01/04 00:31:24;;;;;;;4.70;3.50;;;;;;;;;;5049067;28;20061;-61
2023/01/04 00:33:54;;;;;;;2.45;2.22;;;;;;;;;;5051677;28;20504;-60
2023/01/04 00:36:22;;;;;;;4.25;3.55;;;;;;;;;;5050322;28;20057;-60
2023/01/04 00:39:05;;;;;;;8.68;2.80;;;;;;;;;;5052174;28;20045;-60
2023/01/04 00:41:36;;;;;;;1.90;1.53;;;;;;;;;;5045951;28;20045;-60
2023/01/04 00:44:24;;;;;;;1.05;0.88;;;;;;;;;;5045371;28;20372;-60
2023/01/04 00:46:53;;;;;;;2.15;1.10;;;;;;;;;;5050140;28;20393;-60
2023/01/04 00:49:21;;;;;;;1.00;1.00;;;;;;;;;;5045789;28;20096;-61
2023/01/04 00:51:50;;;;;;;3.85;1.67;;;;;;;;;;5044923;28;20456;-61
2023/01/04 00:54:20;;;;;;;5.65;1.05;;;;;;;;;;5050831;28;20053;-61
2023/01/04 00:56:48;;;;;;;5.10;1.38;;;;;;;;;;5045929;28;20500;-60
2023/01/04 00:59:18;;;;;;;5.40;2.03;;;;;;;;;;5045116;28;20407;-60
2023/01/04 01:01:46;;;;;;;2.00;0.68;;;;;;;;;;5048628;28;20075;-61
2023/01/04 01:04:17;;;;;;;3.38;1.70;;;;;;;;;;5045841;28;20049;-60
2023/01/04 01:06:45;;;;;;;3.50;1.92;;;;;;;;;;5047908;28;20559;-60
2023/01/04 01:09:14;;;;;;;1.45;1.00;;;;;;;;;;5047997;28;20073;-61
2023/01/04 01:11:44;;;;;;;1.17;1.08;;;;;;;;;;5045566;28;20069;-61
2023/01/04 01:14:16;;;;;;;2.03;1.30;;;;;;;;;;5043697;28;20049;-60
2023/01/04 01:16:44;;;;;;;1.52;1.10;;;;;;;;;;5048167;28;20060;-60
2023/01/04 01:19:24;;;;;;;2.08;1.90;;;;;;;;;;5048863;28;20049;-61
2023/01/04 01:21:53;;;;;;;1.70;1.23;;;;;;;;;;5049079;28;20099;-61
2023/01/04 01:24:21;;;;;;;1.13;1.02;;;;;;;;;;5048660;28;20045;-60
2023/01/04 01:26:51;;;;;;;0.70;0.70;;;;;;;;;;5050355;28;20509;-60
2023/01/04 01:29:19;;;;;;;1.08;0.82;;;;;;;;;;5044507;28;20085;-60
2023/01/04 01:31:48;;;;;;;1.55;1.15;;;;;;;;;;5048514;28;20049;-61
2023/01/04 01:34:16;;;;;;;1.98;1.55;;;;;;;;;;5047587;28;20048;-61
2023/01/04 01:36:44;;;;;;;1.80;1.00;;;;;;;;;;5048592;28;20059;-60
2023/01/04 01:39:13;;;;;;;3.03;1.25;;;;;;;;;;5050270;28;20100;-61
2023/01/04 01:41:41;;;;;;;1.40;0.70;;;;;;;;;;5045398;28;20049;-60
2023/01/04 01:44:24;;;;;;;1.70;0.70;;;;;;;;;;5043704;28;20049;-61
2023/01/04 01:46:55;;;;;;;0.88;0.73;;;;;;;;;;5048116;28;20052;-61
2023/01/04 01:49:26;;;;;;;2.53;1.20;;;;;;;;;;5046718;28;20056;-61
2023/01/04 01:51:55;;;;;;;3.42;1.88;;;;;;;;;;5048853;28;20044;-60
2023/01/04 01:54:26;;;;;;;1.42;1.15;;;;;;;;;;5045532;28;20041;-60
2023/01/04 01:56:56;;;;;;;1.42;1.02;;;;;;;;;;5046724;28;20048;-60
2023/01/04 01:59:25;;;;;;;0.95;0.95;;;;;;;;;;5044684;28;20045;-61
2023/01/04 02:01:54;;;;;;;6.07;1.48;;;;;;;;;;5051812;28;20049;-61
2023/01/04 02:04:23;;;;;;;3.78;1.00;;;;;;;;;;5048986;28;20136;-61
2023/01/04 02:06:52;;;;;;;0.85;0.80;;;;;;;;;;5049767;28;20044;-61
2023/01/04 02:09:21;;;;;;;1.77;1.52;;;;;;;;;;5044800;28;20068;-61
2023/01/04 02:11:50;;;;;;;0.77;0.75;;;;;;;;;;5048052;28;20045;-60
2023/01/04 02:14:28;;;;;;;1.90;0.75;;;;;;;;;;5038407;28;20434;-61
2023/01/04 02:17:03;;;;;;;1.55;0.98;;;;;;;;;;5051353;28;20073;-60
2023/01/04 02:19:43;;;;;;;1.48;0.50;;;;;;;;;;5048701;28;20055;-60
2023/01/04 02:22:25;;;;;;;0.80;0.80;;;;;;;;;;5049780;28;20045;-60
2023/01/04 02:25:04;;;;;;;1.55;0.95;;;;;;;;;;5047207;28;20075;-60
2023/01/04 02:27:40;;;;;;;0.60;0.60;;;;;;;;;;5051130;28;20053;-61
2023/01/04 02:30:18;;;;;;;1.50;1.15;;;;;;;;;;5045056;28;20078;-60
2023/01/04 02:32:51;;;;;;;2.22;1.70;;;;;;;;;;5049005;28;20053;-61
2023/01/04 02:35:23;;;;;;;2.65;1.30;;;;;;;;;;5048142;28;20128;-61
2023/01/04 02:37:57;;;;;;;1.50;0.65;;;;;;;;;;5049545;28;20049;-61
2023/01/04 02:40:29;;;;;;;7.07;1.33;;;;;;;;;;5047679;28;20171;-62
2023/01/04 02:45:52;;;;;;;1.73;0.68;;;;;;;;;;5049915;28;20501;-61
2023/01/04 02:51:22;;;;;;;1.63;1.35;;;;;;;;;;5047768;28;20060;-60
2023/01/04 02:53:51;;;;;;;2.60;2.00;;;;;;;;;;5041981;28;20044;-60
2023/01/04 02:56:34;;;;;;;2.22;1.20;;;;;;;;;;5047069;28;20118;-60
2023/01/04 02:59:11;;;;;;;0.47;0.38;;;;;;;;;;5044829;28;20057;-61
2023/01/04 03:07:38;;;;;;;0.88;0.80;;;;;;;;;;5037663;28;20051;-61
2023/01/04 03:10:08;;;;;;;3.33;1.65;;;;;;;;;;5043437;28;20055;-61
2023/01/04 03:12:38;;;;;;;2.72;1.55;;;;;;;;;;5046680;28;20061;-60
2023/01/04 03:15:10;;;;;;;0.52;0.52;;;;;;;;;;5046054;28;20060;-60
2023/01/04 03:17:42;;;;;;;2.25;1.48;;;;;;;;;;5041810;28;20079;-60
2023/01/04 03:20:12;;;;;;;2.55;1.42;;;;;;;;;;5043367;28;20136;-61
2023/01/04 03:36:45;;;;;;;1.88;1.30;;;;;;;;;;5047810;28;20049;-61
2023/01/04 03:50:33;;;;;;;1.88;1.13;;;;;;;;;;5013459;28;20061;-61
2023/01/04 03:53:03;;;;;;;2.63;1.60;;;;;;;;;;5044224;28;20067;-60
2023/01/04 03:55:32;;;;;;;1.15;1.05;;;;;;;;;;5044585;28;20512;-61
2023/01/04 03:58:00;;;;;;;2.40;1.40;;;;;;;;;;5043476;28;20129;-60
2023/01/04 04:00:28;;;;;;;1.40;1.30;;;;;;;;;;5042729;28;20048;-61
2023/01/04 04:03:06;;;;;;;3.08;1.33;;;;;;;;;;5045747;28;20053;-60
2023/01/04 04:08:27;;;;;;;2.10;0.88;;;;;;;;;;5039047;28;20057;-61
2023/01/04 04:10:55;;;;;;;3.10;1.13;;;;;;;;;;5045885;28;20055;-61
2023/01/04 04:13:24;;;;;;;3.13;0.85;;;;;;;;;;5042112;28;20059;-61
2023/01/04 04:15:53;;;;;;;1.48;0.80;;;;;;;;;;5048093;28;20060;-61
2023/01/04 04:18:22;;;;;;;1.48;1.27;;;;;;;;;;5050563;28;20049;-60
2023/01/04 04:20:57;;;;;;;2.65;1.17;;;;;;;;;;5048424;28;20040;-60
2023/01/04 04:23:27;;;;;;;1.83;1.00;;;;;;;;;;5046873;28;20057;-60
2023/01/04 04:25:55;;;;;;;3.53;1.58;;;;;;;;;;5051832;28;20051;-60
2023/01/04 04:28:24;;;;;;;3.55;1.08;;;;;;;;;;5047381;28;20060;-60
2023/01/04 04:30:52;;;;;;;1.50;0.93;;;;;;;;;;5050173;28;20056;-61
2023/01/04 04:33:20;;;;;;;1.10;0.68;;;;;;;;;;5051272;28;20140;-60
2023/01/04 04:35:51;;;;;;;0.77;0.60;;;;;;;;;;5051612;28;20051;-60
2023/01/04 04:38:19;;;;;;;1.23;1.10;;;;;;;;;;5051353;28;20049;-60
2023/01/04 04:43:35;;;;;;;1.77;0.77;;;;;;;;;;5042030;28;20050;-60
2023/01/04 04:46:04;;;;;;;3.85;2.13;;;;;;;;;;5041197;28;20042;-60
2023/01/04 04:48:32;;;;;;;0.88;0.80;;;;;;;;;;5051344;28;20164;-61
2023/01/04 04:51:00;;;;;;;3.45;1.13;;;;;;;;;;5047875;28;20051;-60
2023/01/04 04:53:28;;;;;;;0.95;0.85;;;;;;;;;;5057700;28;20053;-60
2023/01/04 04:55:58;;;;;;;0.70;0.40;;;;;;;;;;5048555;28;20061;-60
2023/01/04 04:58:26;;;;;;;2.75;1.40;;;;;;;;;;5044501;28;20055;-60
2023/01/04 05:00:55;;;;;;;0.40;0.40;;;;;;;;;;5048368;28;20501;-60
2023/01/04 05:03:23;;;;;;;0.93;0.85;;;;;;;;;;5048748;28;20130;-60
2023/01/04 05:05:51;;;;;;;1.20;1.00;;;;;;;;;;5047237;28;20061;-61
2023/01/04 05:08:20;;;;;;;2.63;1.77;;;;;;;;;;5046753;28;20065;-60
2023/01/04 05:10:48;;;;;;;1.58;0.80;;;;;;;;;;5050347;28;20143;-60
2023/01/04 05:13:17;;;;;;;0.80;0.40;;;;;;;;;;5051856;28;20052;-60
2023/01/04 05:15:46;;;;;;;0.95;0.88;;;;;;;;;;5048005;28;20049;-60
2023/01/04 05:18:15;;;;;;;0.52;0.52;;;;;;;;;;5046948;28;20135;-60
2023/01/04 05:20:44;;;;;;;1.73;0.70;;;;;;;;;;5049959;28;20053;-60
2023/01/04 05:23:13;;;;;;;1.65;0.38;;;;;;;;;;5044194;28;20087;-60
2023/01/04 05:25:41;;;;;;;0.40;0.40;;;;;;;;;;5049902;28;20402;-60
2023/01/04 05:28:10;;;;;;;0.57;0.55;;;;;;;;;;5055655;28;20056;-60
2023/01/04 05:30:52;;;;;;;0.30;0.28;;;;;;;;;;5049350;28;20041;-61
2023/01/04 05:33:21;;;;;;;0.63;0.63;;;;;;;;;;5043265;28;20049;-60
2023/01/04 05:35:49;;;;;;;2.92;0.75;;;;;;;;;;5040238;28;20388;-60
2023/01/04 05:38:18;;;;;;;0.77;0.77;;;;;;;;;;5046372;28;20060;-61
2023/01/04 05:40:46;;;;;;;0.25;0.25;;;;;;;;;;5047205;28;20061;-60
2023/01/04 05:43:14;;;;;;;2.55;1.15;;;;;;;;;;5045694;28;20037;-60
2023/01/04 05:45:45;;;;;;;1.63;0.77;;;;;;;;;;5050649;28;20504;-60
2023/01/04 05:48:13;;;;;;;2.53;0.52;;;;;;;;;;5049730;28;20094;-60
2023/01/04 05:50:42;;;;;;;0.98;0.80;;;;;;;;;;5042475;28;20047;-60
2023/01/04 05:53:10;;;;;;;1.63;0.85;;;;;;;;;;5048621;28;20051;-60
2023/01/04 05:55:38;;;;;;;0.93;0.85;;;;;;;;;;5049311;28;20136;-61
2023/01/04 05:58:07;;;;;;;0.90;0.30;;;;;;;;;;5049678;28;20048;-60
2023/01/04 06:00:35;;;;;;;0.38;0.30;;;;;;;;;;5048352;28;20041;-60
2023/01/04 06:03:05;;;;;;;0.35;0.35;;;;;;;;;;5047569;28;20755;-60
2023/01/04 06:05:34;;;;;;;0.60;0.60;;;;;;;;;;5047683;28;20569;-60
2023/01/04 06:08:02;;;;;;;0.50;0.50;;;;;;;;;;5045768;28;20519;-60
2023/01/04 06:10:30;;;;;;;0.20;0.20;;;;;;;;;;5048123;28;20052;-60
2023/01/04 06:12:58;;;;;;;0.73;0.55;;;;;;;;;;5049734;28;20057;-60
2023/01/04 06:15:27;;;;;;;0.30;0.30;;;;;;;;;;5048178;28;20056;-60
2023/01/04 06:17:55;;;;;;;1.02;0.50;;;;;;;;;;5053659;28;20485;-60
2023/01/04 06:20:25;;;;;;;0.30;0.30;;;;;;;;;;5044843;28;20056;-60
2023/01/04 06:22:53;;;;;;;0.15;0.13;;;;;;;;;;5044041;28;20072;-61
2023/01/04 06:25:21;;;;;;;0.30;0.30;;;;;;;;;;5050833;28;20053;-61
2023/01/04 06:27:49;;;;;;;0.22;0.22;;;;;;;;;;5053771;28;20048;-61
2023/01/04 06:30:18;;;;;;;0.30;0.30;;;;;;;;;;5049032;28;20584;-61
2023/01/04 06:32:46;;;;;;;1.20;0.85;;;;;;;;;;5043089;28;20053;-60
2023/01/04 06:35:14;;;;;;;0.10;0.10;;;;;;;;;;5047801;28;20051;-61
2023/01/04 06:37:44;;;;;;;0.50;0.43;;;;;;;;;;5043149;28;20057;-60
2023/01/04 06:40:12;;;;;;;0.32;0.32;;;;;;;;;;5046403;28;20414;-61
2023/01/04 06:42:46;;;;;;;1.88;0.60;;;;;;;;;;5040383;28;20529;-60
2023/01/04 06:45:16;;;;;;;0.68;0.45;;;;;;;;;;5046255;28;20048;-61
2023/01/04 06:47:44;;;;;;;1.00;0.60;;;;;;;;;;5044409;28;20036;-61
2023/01/04 06:50:12;;;;;;;2.47;0.73;;;;;;;;;;5048331;28;20048;-61
2023/01/04 06:52:41;;;;;;;0.52;0.20;;;;;;;;;;5041317;28;20056;-60
2023/01/04 06:55:11;;;;;;;0.15;0.15;;;;;;;;;;5046745;28;20052;-61
2023/01/04 06:57:39;;;;;;;0.50;0.50;;;;;;;;;;5046982;28;20521;-61
2023/01/04 07:00:08;;;;;;;0.10;0.10;;;;;;;;;;5041618;28;20048;-61
2023/01/04 07:02:37;;;;;;;0.50;0.50;;;;;;;;;;5050718;28;20053;-61
2023/01/04 07:05:05;;;;;;;0.75;0.45;;;;;;;;;;5038946;28;20041;-61
2023/01/04 07:07:34;;;;;;;0.55;0.20;;;;;;;;;;5046749;28;20084;-61
2023/01/04 07:10:02;;;;;;;0.98;0.70;;;;;;;;;;5048874;28;20048;-60
2023/01/04 07:12:38;;;;;;;0.73;0.73;;;;;;;;;;5049451;28;20051;-60
2023/01/04 07:15:07;;;;;;;1.05;0.47;;;;;;;;;;5042600;28;20094;-60
2023/01/04 07:17:56;;;;;;;0.20;0.20;;;;;;;;;;5041950;28;20048;-60
2023/01/04 07:20:24;;;;;;;0.55;0.55;;;;;;;;;;5050218;28;20561;-60
2023/01/04 07:22:52;;;;;;;1.15;0.85;;;;;;;;;;5048246;28;20485;-60
2023/01/04 07:25:21;;;;;;;0.80;0.60;;;;;;;;;;5048166;28;20052;-60
2023/01/04 07:27:52;;;;;;;2.33;0.85;;;;;;;;;;5047875;28;20143;-61
2023/01/04 07:30:21;;;;;;;1.00;0.30;;;;;;;;;;5047722;28;20048;-60
2023/01/04 07:32:50;;;;;;;0.32;0.32;;;;;;;;;;5045413;28;20061;-61
2023/01/04 07:35:18;;;;;;;0.30;0.30;;;;;;;;;;5050651;28;20096;-61
2023/01/04 07:37:46;;;;;;;0.38;0.38;;;;;;;;;;5043049;28;21201;-60
2023/01/04 07:40:24;;;;;;;0.77;0.22;;;;;;;;;;5048549;28;20128;-60
2023/01/04 07:42:58;;;;;;;0.10;0.10;;;;;;;;;;5045094;28;20403;-60
2023/01/04 07:45:26;;;;;;;0.60;0.25;;;;;;;;;;5046929;28;20103;-60
2023/01/04 07:47:55;;;;;;;0.25;0.25;;;;;;;;;;5049252;28;20483;-60
2023/01/04 07:50:23;;;;;;;0.25;0.22;;;;;;;;;;5052657;28;20056;-60
2023/01/04 07:52:51;;;;;;;0.32;0.32;;;;;;;;;;5041161;28;20045;-60
2023/01/04 07:55:19;;;;;;;0.30;0.30;;;;;;;;;;5045447;28;20057;-60
2023/01/04 07:57:48;;;;;;;0.30;0.30;;;;;;;;;;5050227;28;20041;-60
2023/01/04 08:00:18;;;;;;;0.57;0.40;;;;;;;;;;5049139;28;20045;-60
2023/01/04 08:02:49;;;;;;;0.20;0.20;;;;;;;;;;5051736;28;20142;-60
2023/01/04 08:05:17;;;;;;;0.95;0.47;;;;;;;;;;5049478;28;20048;-60
2023/01/04 08:07:46;;;;;;;0.95;0.68;;;;;;;;;;5049137;28;20132;-61
2023/01/04 08:10:14;;;;;;;0.22;0.22;;;;;;;;;;5048350;28;20053;-60
2023/01/04 08:12:43;;;;;;;2.38;0.40;;;;;;;;;;5053003;28;20072;-59
2023/01/04 08:15:13;;;;;;;0.93;0.35;;;;;;;;;;5052287;28;20080;-60
2023/01/04 08:17:43;;;;;;;0.35;0.35;;;;;;;;;;5053540;28;20091;-60
2023/01/04 08:20:11;;;;;;;0.20;0.20;;;;;;;;;;5052419;28;20052;-60
2023/01/04 08:22:40;;;;;;;0.57;0.22;;;;;;;;;;5051152;28;20064;-59
2023/01/04 08:25:08;;;;;;;0.35;0.28;;;;;;;;;;5051831;28;20045;-60
2023/01/04 08:27:37;;;;;;;0.30;0.30;;;;;;;;;;5051072;28;20063;-60
2023/01/04 08:30:06;;;;;;;0.10;0.10;;;;;;;;;;5049054;28;20045;-60
2023/01/04 08:32:34;;;;;;;1.30;0.40;;;;;;;;;;5050981;28;20080;-60
2023/01/04 08:35:04;;;;;;;0.93;0.93;;;;;;;;;;5051945;28;20494;-60
2023/01/04 08:37:34;;;;;;;1.45;0.52;;;;;;;;;;5046831;28;20563;-60
2023/01/04 08:40:02;;;;;;;0.43;0.43;;;;;;;;;;5050403;28;20053;-60
2023/01/04 08:42:31;;;;;;;5.43;0.65;;;;;;;;;;5050320;28;20484;-60
2023/01/04 08:45:00;;;;;;;0.10;0.10;;;;;;;;;;5048772;28;20124;-61
2023/01/04 08:47:29;;;;;;;0.68;0.68;;;;;;;;;;5049341;28;20087;-60
2023/01/04 08:49:57;;;;;;;1.05;0.70;;;;;;;;;;5049732;28;20053;-61
2023/01/04 08:52:29;;;;;;;0.85;0.52;;;;;;;;;;5047073;28;20076;-60
2023/01/04 08:54:57;;;;;;;0.20;0.20;;;;;;;;;;5042666;28;20045;-60
2023/01/04 08:57:26;;;;;;;0.70;0.40;;;;;;;;;;5046456;28;20095;-60
2023/01/04 08:59:54;;;;;;;0.32;0.30;;;;;;;;;;5050411;28;20045;-60
2023/01/04 09:02:23;;;;;;;0.50;0.40;;;;;;;;;;5047963;28;20128;-60
2023/01/04 09:04:53;;;;;;;2.28;0.30;;;;;;;;;;5050481;28;20155;-60
2023/01/04 09:07:22;;;;;;;0.75;0.30;;;;;;;;;;5049822;28;20105;-60
2023/01/04 09:09:52;;;;;;;0.20;0.10;;;;;;;;;;5045150;28;20044;-61
2023/01/04 09:12:20;;;;;;;0.38;0.38;;;;;;;;;;5050670;28;20051;-60
2023/01/04 09:14:48;;;;;;;0.20;0.20;;;;;;;;;;5044854;28;20049;-60
2023/01/04 09:17:17;;;;;;;0.20;0.20;;;;;;;;;;5048771;28;20375;-61
2023/01/04 09:19:45;;;;;;;0.30;0.30;;;;;;;;;;5045947;28;20060;-61
2023/01/04 09:22:13;;;;;;;0.63;0.50;;;;;;;;;;5041872;28;20045;-60
2023/01/04 09:24:42;;;;;;;0.20;0.20;;;;;;;;;;5047620;28;20040;-60
2023/01/04 09:27:11;;;;;;;0.55;0.22;;;;;;;;;;5050164;28;20107;-60
2023/01/04 09:29:40;;;;;;;1.02;0.70;;;;;;;;;;5047493;28;20048;-60
2023/01/04 09:32:08;;;;;;;0.10;0.10;;;;;;;;;;5042780;28;20041;-60
2023/01/04 09:34:43;;;;;;;0.45;0.15;;;;;;;;;;5045533;28;20576;-61
2023/01/04 09:37:12;;;;;;;0.47;0.47;;;;;;;;;;5048852;28;20049;-61
2023/01/04 09:39:40;;;;;;;0.52;0.35;;;;;;;;;;5050210;28;20559;-60
2023/01/04 09:42:17;;;;;;;0.17;0.17;;;;;;;;;;5046050;28;20056;-61
2023/01/04 09:44:46;;;;;;;0.57;0.57;;;;;;;;;;5049138;28;20511;-61
2023/01/04 09:47:37;;;;;;;0.50;0.50;;;;;;;;;;5046858;28;20056;-61
2023/01/04 09:50:07;;;;;;;1.27;0.30;;;;;;;;;;5050368;28;20045;-60
2023/01/04 09:52:41;;;;;;;0.85;0.85;;;;;;;;;;5045089;28;20045;-61
2023/01/04 09:55:10;;;;;;;0.43;0.20;;;;;;;;;;5051552;28;20436;-61
2023/01/04 09:58:01;;;;;;;0.88;0.60;;;;;;;;;;5047966;28;20550;-61
2023/01/04 10:00:31;;;;;;;1.67;0.40;;;;;;;;;;5046676;28;20052;-61
2023/01/04 10:03:05;;;;;;;0.28;0.28;;;;;;;;;;5046391;28;20041;-61
2023/01/04 10:05:35;;;;;;;0.20;0.20;;;;;;;;;;5046677;28;20084;-61
2023/01/04 10:08:03;;;;;;;5.38;0.38;;;;;;;;;;5049634;28;20453;-61
2023/01/04 10:10:46;;;;;;;1.17;0.50;;;;;;;;;;5048947;28;20144;-61
2023/01/04 10:13:20;;;;;;;1.02;0.40;;;;;;;;;;5048796;28;20096;-61
2023/01/04 10:15:53;;;;;;;2.23;0.50;;;;;;;;;;5040439;28;20076;-62
2023/01/04 10:18:27;;;;;;;0.30;0.30;;;;;;;;;;5041100;28;20292;-61
2023/01/04 10:21:31;;;;;;;1.08;0.63;;;;;;;;;;5046231;28;20048;-61
2023/01/04 10:24:16;;;;;;;0.25;0.13;;;;;;;;;;5048802;28;20085;-61
2023/01/04 10:26:46;;;;;;;0.47;0.45;;;;;;;;;;5049301;28;20223;-61
2023/01/04 10:29:33;;;;;;;0.43;0.40;;;;;;;;;;5047151;28;20044;-61
2023/01/04 10:32:03;;;;;;;0.98;0.80;;;;;;;;;;5048994;28;20056;-61
2023/01/04 10:34:33;;;;;;;0.65;0.35;;;;;;;;;;5050471;28;20045;-61
2023/01/04 10:37:04;;;;;;;0.82;0.22;;;;;;;;;;5048462;28;20053;-61
2023/01/04 10:39:34;;;;;;;2.65;0.82;;;;;;;;;;5048964;28;20045;-62
2023/01/04 10:42:10;;;;;;;0.25;0.25;;;;;;;;;;5045706;28;20053;-62
2023/01/04 10:44:43;;;;;;;0.57;0.28;;;;;;;;;;5038723;28;20067;-61
2023/01/04 10:47:13;;;;;;;0.38;0.32;;;;;;;;;;5036849;28;20053;-61
2023/01/04 10:49:43;;;;;;;0.15;0.15;;;;;;;;;;5047477;28;20065;-61
2023/01/04 10:52:14;;;;;;;0.65;0.22;;;;;;;;;;5050398;28;20059;-61
2023/01/04 10:54:45;;;;;;;0.10;0.10;;;;;;;;;;5048992;28;20428;-61
2023/01/04 10:57:15;;;;;;;0.43;0.43;;;;;;;;;;5051869;28;20040;-61
2023/01/04 10:59:48;;;;;;;0.40;0.40;;;;;;;;;;5050116;28;20329;-62
2023/01/04 11:02:19;;;;;;;0.40;0.20;;;;;;;;;;5047868;28;20097;-61
2023/01/04 11:04:52;;;;;;;0.15;0.10;;;;;;;;;;5048544;28;20049;-61
2023/01/04 11:07:22;;;;;;;0.20;0.20;;;;;;;;;;5045061;28;20052;-62
2023/01/04 11:09:53;;;;;;;0.90;0.55;;;;;;;;;;5041130;28;20406;-62
2023/01/04 11:12:22;;;;;;;0.80;0.32;;;;;;;;;;5041103;28;20527;-62
2023/01/04 11:14:52;;;;;;;0.95;0.40;;;;;;;;;;5037021;28;20052;-62
2023/01/04 11:17:22;;;;;;;0.20;0.20;;;;;;;;;;5044121;28;20128;-62
2023/01/04 11:19:50;;;;;;;0.65;0.50;;;;;;;;;;5043000;28;21454;-62
2023/01/04 11:22:20;;;;;;;0.75;0.20;;;;;;;;;;5050203;28;20053;-62
2023/01/04 11:24:50;;;;;;;0.65;0.30;;;;;;;;;;5053319;28;20098;-61
2023/01/04 11:27:42;;;;;;;0.57;0.40;;;;;;;;;;5051100;28;20504;-60
2023/01/04 11:30:15;;;;;;;0.40;0.20;;;;;;;;;;5050774;28;20075;-62
2023/01/04 11:32:46;;;;;;;0.40;0.40;;;;;;;;;;5052452;28;20049;-61
2023/01/04 11:35:15;;;;;;;0.45;0.25;;;;;;;;;;5060049;28;20471;-62
2023/01/04 11:37:43;;;;;;;0.10;0.10;;;;;;;;;;5055140;28;20049;-62
2023/01/04 11:40:13;;;;;;;2.10;0.50;;;;;;;;;;5050136;28;20037;-62
2023/01/04 11:42:41;;;;;;;0.30;0.20;;;;;;;;;;5051915;28;20379;-62
2023/01/04 11:45:21;;;;;;;0.20;0.20;;;;;;;;;;5046454;28;20059;-62
2023/01/04 11:47:51;;;;;;;0.10;0.10;;;;;;;;;;5047916;28;20041;-62
2023/01/04 11:50:35;;;;;;;0.10;0.10;;;;;;;;;;5049163;28;20044;-62
2023/01/04 11:53:03;;;;;;;0.25;0.20;;;;;;;;;;5044465;28;20132;-62
2023/01/04 11:55:32;;;;;;;0.73;0.73;;;;;;;;;;5045697;28;20067;-62
2023/01/04 11:58:07;;;;;;;0.10;0.10;;;;;;;;;;5049837;28;20503;-61
2023/01/04 12:00:37;;;;;;;0.10;0.10;;;;;;;;;;5052488;28;20049;-62
2023/01/04 12:03:13;;;;;;;5.78;0.28;;;;;;;;;;5046838;28;20045;-62
2023/01/04 12:05:42;;;;;;;0.60;0.20;;;;;;;;;;5042452;28;20399;-62
2023/01/04 12:08:14;;;;;;;0.00;0.00;;;;;;;;;;5043365;28;20056;-61
2023/01/04 12:10:42;;;;;;;0.85;0.20;;;;;;;;;;5042377;28;20571;-62
2023/01/04 12:13:11;;;;;;;0.10;0.10;;;;;;;;;;5050103;28;20068;-62
2023/01/04 12:15:46;;;;;;;0.10;0.10;;;;;;;;;;5044956;28;20462;-62
2023/01/04 12:18:17;;;;;;;0.20;0.10;;;;;;;;;;5044849;28;20440;-62
2023/01/04 12:20:45;;;;;;;0.20;0.20;;;;;;;;;;5050116;28;20053;-62
2023/01/04 12:23:14;;;;;;;1.10;0.32;;;;;;;;;;5053219;28;20049;-62
2023/01/04 12:25:44;;;;;;;0.20;0.20;;;;;;;;;;5052193;28;20068;-62
2023/01/04 12:28:27;;;;;;;0.45;0.10;;;;;;;;;;5052556;28;20148;-62
2023/01/04 12:31:17;;;;;;;0.00;0.00;;;;;;;;;;5044726;28;20044;-62
2023/01/04 12:33:48;;;;;;;0.35;0.17;;;;;;;;;;5047207;28;20061;-62
2023/01/04 12:36:18;;;;;;;0.00;0.00;;;;;;;;;;5049825;28;20052;-59
2023/01/04 12:39:06;;;;;;;0.38;0.10;;;;;;;;;;5048721;28;20125;-62
2023/01/04 12:42:03;;;;;;;0.55;0.30;;;;;;;;;;5049148;28;20599;-62
2023/01/04 12:44:50;;;;;;;0.10;0.10;;;;;;;;;;5044549;28;20088;-62
2023/01/04 12:50:26;;;;;;;0.10;0.10;;;;;;;;;;5039026;28;20135;-62
2023/01/04 12:52:55;;;;;;;0.25;0.20;;;;;;;;;;5054118;28;20051;-62
2023/01/04 12:55:53;;;;;;;0.25;0.15;;;;;;;;;;5048409;28;20060;-61
2023/01/04 12:58:41;;;;;;;0.20;0.20;;;;;;;;;;5047596;28;20048;-62
2023/01/04 13:01:30;;;;;;;0.20;0.15;;;;;;;;;;5044613;28;20124;-62
2023/01/04 13:03:59;;;;;;;0.10;0.10;;;;;;;;;;5051107;28;20063;-62
2023/01/04 13:06:41;;;;;;;0.10;0.10;;;;;;;;;;5048851;28;20367;-62
2023/01/04 13:09:15;;;;;;;2.85;0.57;;;;;;;;;;5045681;28;20053;-61
2023/01/04 13:11:54;;;;;;;0.10;0.10;;;;;;;;;;5048013;28;20041;-61
2023/01/04 13:14:28;;;;;;;0.08;0.08;;;;;;;;;;5040711;28;20149;-61
2023/01/04 13:17:04;;;;;;;0.00;0.00;;;;;;;;;;5052222;28;20523;-61
2023/01/04 13:19:33;;;;;;;0.00;0.00;;;;;;;;;;5040094;28;20091;-61
2023/01/04 13:22:03;;;;;;;0.00;0.00;;;;;;;;;;5048116;28;20050;-61
2023/01/04 13:24:33;;;;;;;0.35;0.20;;;;;;;;;;5038693;28;20045;-62
2023/01/04 13:27:05;;;;;;;0.10;0.10;;;;;;;;;;5048809;28;20053;-62
2023/01/04 13:29:34;;;;;;;0.17;0.15;;;;;;;;;;5051381;28;20115;-61
2023/01/04 13:32:04;;;;;;;0.20;0.20;;;;;;;;;;5044306;28;20064;-61
2023/01/04 13:34:33;;;;;;;0.45;0.20;;;;;;;;;;5041265;28;20401;-61
2023/01/04 13:37:17;;;;;;;0.10;0.10;;;;;;;;;;5044550;28;20064;-61
2023/01/04 13:39:47;;;;;;;6.90;0.30;;;;;;;;;;5039863;28;20071;-61
2023/01/04 13:42:19;;;;;;;0.03;0.03;;;;;;;;;;5045344;28;20045;-61
2023/01/04 13:45:05;;;;;;;0.08;0.05;;;;;;;;;;5041333;28;20059;-61
2023/01/04 13:47:51;;;;;;;0.10;0.10;;;;;;;;;;5041066;28;20496;-61
2023/01/04 13:50:26;;;;;;;0.13;0.13;;;;;;;;;;5046151;28;20049;-61
2023/01/04 13:52:56;;;;;;;0.45;0.45;;;;;;;;;;5047736;28;20056;-61
2023/01/04 13:55:37;;;;;;;0.00;0.00;;;;;;;;;;5048892;28;20045;-61
2023/01/04 13:58:06;;;;;;;0.17;0.10;;;;;;;;;;5051039;28;20067;-61
2023/01/04 14:00:36;;;;;;;0.00;0.00;;;;;;;;;;5048484;28;20536;-61
2023/01/04 14:03:17;;;;;;;0.75;0.10;;;;;;;;;;5043295;28;20048;-62
2023/01/04 14:05:47;;;;;;;0.13;0.13;;;;;;;;;;5048148;28;20456;-61
2023/01/04 14:08:21;;;;;;;0.08;0.08;;;;;;;;;;5047113;28;20041;-61
2023/01/04 14:10:50;;;;;;;0.30;0.30;;;;;;;;;;5050385;28;20045;-61
2023/01/04 14:13:19;;;;;;;0.10;0.10;;;;;;;;;;5047149;28;20063;-61
2023/01/04 14:15:48;;;;;;;0.13;0.13;;;;;;;;;;5047191;28;20278;-61
2023/01/04 14:18:26;;;;;;;0.10;0.10;;;;;;;;;;5049274;28;20098;-61
2023/01/04 14:20:55;;;;;;;0.15;0.15;;;;;;;;;;5046651;28;20037;-61
2023/01/04 14:23:28;;;;;;;0.05;0.05;;;;;;;;;;5050123;28;20103;-61
2023/01/04 14:25:57;;;;;;;1.45;0.50;;;;;;;;;;5049661;28;20052;-61
2023/01/04 14:28:38;;;;;;;0.00;0.00;;;;;;;;;;5049668;28;20049;-61
2023/01/04 14:31:26;;;;;;;0.10;0.10;;;;;;;;;;5045502;28;20037;-61
2023/01/04 14:33:54;;;;;;;0.40;0.35;;;;;;;;;;5046435;28;20468;-62
2023/01/04 14:36:25;;;;;;;1.90;0.30;;;;;;;;;;5048327;28;20053;-61
2023/01/04 14:39:10;;;;;;;0.10;0.10;;;;;;;;;;5044070;28;20072;-61
2023/01/04 14:41:38;;;;;;;0.10;0.10;;;;;;;;;;5047585;28;20651;-61
2023/01/04 14:44:11;;;;;;;0.38;0.15;;;;;;;;;;5037968;28;20053;-61
2023/01/04 14:46:42;;;;;;;0.32;0.32;;;;;;;;;;5048092;28;20377;-61
2023/01/04 14:49:10;;;;;;;0.10;0.10;;;;;;;;;;5048901;28;20094;-61
2023/01/04 14:51:42;;;;;;;0.10;0.10;;;;;;;;;;5048521;28;20140;-61
2023/01/04 14:54:12;;;;;;;0.10;0.10;;;;;;;;;;5049194;28;20045;-61
2023/01/04 14:56:47;;;;;;;0.20;0.20;;;;;;;;;;5046577;28;20045;-61
2023/01/04 14:59:16;;;;;;;0.32;0.28;;;;;;;;;;5047282;28;20048;-61
2023/01/04 15:01:44;;;;;;;0.00;0.00;;;;;;;;;;5047383;28;20049;-61
2023/01/04 15:04:12;;;;;;;0.00;0.00;;;;;;;;;;5044802;28;20055;-62
2023/01/04 15:06:47;;;;;;;0.00;0.00;;;;;;;;;;5038030;28;20051;-61
2023/01/04 15:09:17;;;;;;;0.13;0.10;;;;;;;;;;5044456;28;20040;-61
2023/01/04 15:11:45;;;;;;;0.00;0.00;;;;;;;;;;5047312;28;20483;-61
2023/01/04 15:14:14;;;;;;;0.35;0.20;;;;;;;;;;5059048;28;20456;-61
2023/01/04 15:16:42;;;;;;;0.10;0.10;;;;;;;;;;5046573;28;20063;-61
2023/01/04 15:19:11;;;;;;;0.00;0.00;;;;;;;;;;5045837;28;20327;-61
2023/01/04 15:21:40;;;;;;;0.00;0.00;;;;;;;;;;5048135;28;20053;-61
2023/01/04 15:24:09;;;;;;;1.10;0.22;;;;;;;;;;5044438;28;20053;-61
2023/01/04 15:26:39;;;;;;;0.10;0.10;;;;;;;;;;5046589;28;20417;-61
2023/01/04 15:29:08;;;;;;;0.00;0.00;;;;;;;;;;5046576;28;20398;-61
2023/01/04 15:31:37;;;;;;;0.20;0.20;;;;;;;;;;5037914;28;20045;-61
2023/01/04 15:34:08;;;;;;;9.00;0.15;;;;;;;;;;5047577;28;20566;-61
2023/01/04 15:36:39;;;;;;;0.00;0.00;;;;;;;;;;5047613;28;20048;-61
2023/01/04 15:39:09;;;;;;;0.10;0.10;;;;;;;;;;5046971;28;20328;-61
2023/01/04 15:44:25;;;;;;;0.10;0.10;;;;;;;;;;5043060;28;20057;-61
2023/01/04 15:46:53;;;;;;;0.75;0.10;;;;;;;;;;5048823;28;20475;-61
2023/01/04 15:49:21;;;;;;;0.10;0.10;;;;;;;;;;5043401;28;20045;-61
2023/01/04 15:51:50;;;;;;;0.10;0.10;;;;;;;;;;5048458;28;20048;-61
2023/01/04 15:54:20;;;;;;;0.00;0.00;;;;;;;;;;5045795;28;20164;-61
2023/01/04 15:56:49;;;;;;;0.10;0.10;;;;;;;;;;5043469;28;20738;-61